Kezdőlap
METAR-TAF:

METAR-TAF

Repülőterek :

West Plains Municipal Airport

West Plains, Missouri, Amerikai Egyesült Államok

földrajzi szélesség: 36-52-45N, földrajzi hosszúság: 091-54-18W, magasság: 374 m

Jelenlegi meteorológiai megfigyelések

A jelentés 45 perccel ezelõtt készült, 09:53 UTC
Szélcsend
Hőmérséklet 18°C
Páratartalom 83%
Légköri nyomás 1019 hPa
Látótávolság: 16.1 km
Derült ég

METAR: KUNO 210953Z AUTO 00000KT 10SM CLR 18/15 A3010 RMK AO2 SLP180 T01830150

Idő: 05:38 (10:38 UTC)


TAF: hiányzik

Meteorológiai megfigyelések és előrejelzések több, mint 4000 repülőtéren (METAR és TAF jelentéseket).

A térképen piros és sárga pontok jelzik az elérhető meteorológiai állomásokat.

Mozgassa az egeret a pont fölött, hogy megjelenjen az állomás neve.

Azután kattintson az időjárási megfigyelések és előrejelzések megtekintéséhez.

A térkép megváltoztatása: kattintson a fekete keresztel jelölt zöld gombra ráközelítéshez, a vonallal jelölt zöld gombra távolításhoz, vagy a zöld nyilakra a szomszédos térképek eléréséhez.


METAR-TAF: